Time;durP1;ratioP1;P1;durP2;ratioP2;P2;SDS_P1;SDS_P2;PMS_P1;PMS_P2;Temp;Humidity;BMP_temperature;BMP_pressure;BME280_temperature;BME280_humidity;BME280_pressure;Samples;Min_cycle;Max_cycle;Signal;HPM_P1;HPM_P2
2022/10/04 00:01:47;;;;;;;0.10;0.10;;;12.00;99.90;;;;;;5085124;28;20478;-77
2022/10/04 00:04:22;;;;;;;0.10;0.10;;;12.00;99.90;;;;;;5081504;28;20478;-77
2022/10/04 00:07:03;;;;;;;0.20;0.20;;;12.00;99.90;;;;;;5065153;28;20442;-77
2022/10/04 00:09:56;;;;;;;0.20;0.20;;;11.90;99.90;;;;;;5067282;28;20443;-77
2022/10/04 00:12:25;;;;;;;0.10;0.10;;;11.90;99.90;;;;;;5062549;28;20443;-77
2022/10/04 00:14:54;;;;;;;0.10;0.10;;;11.90;99.90;;;;;;5085116;28;20994;-77
2022/10/04 00:17:23;;;;;;;0.20;0.20;;;11.90;99.90;;;;;;5083304;28;20943;-77
2022/10/04 00:19:50;;;;;;;0.20;0.20;;;11.90;99.90;;;;;;5078846;28;20445;-77
2022/10/04 00:22:21;;;;;;;0.10;0.10;;;11.80;99.90;;;;;;5093355;28;20792;-77
2022/10/04 00:25:05;;;;;;;0.20;0.20;;;11.60;99.90;;;;;;5085672;28;20493;-76
2022/10/04 00:27:30;;;;;;;0.10;0.10;;;11.60;99.90;;;;;;5065796;28;20445;-77
2022/10/04 00:30:02;;;;;;;0.10;0.10;;;11.60;99.90;;;;;;5086403;28;20450;-77
2022/10/04 00:32:40;;;;;;;0.20;0.20;;;11.80;99.90;;;;;;5081921;28;20192;-78
2022/10/04 00:35:38;;;;;;;0.10;0.10;;;11.70;99.90;;;;;;5085637;28;20475;-78
2022/10/04 00:38:06;;;;;;;0.20;0.20;;;11.80;99.90;;;;;;5011356;28;20963;-77
2022/10/04 00:40:37;;;;;;;0.20;0.20;;;11.60;99.90;;;;;;5089589;28;20420;-77
2022/10/04 00:43:28;;;;;;;0.20;0.20;;;11.60;99.90;;;;;;5069877;28;20482;-77
2022/10/04 00:45:59;;;;;;;0.20;0.20;;;11.50;99.90;;;;;;5072607;28;20481;-77
2022/10/04 00:48:52;;;;;;;0.10;0.10;;;11.70;99.90;;;;;;5075049;28;20534;-77
2022/10/04 00:51:44;;;;;;;0.10;0.10;;;11.60;99.90;;;;;;5062664;28;20500;-77
2022/10/04 00:54:23;;;;;;;0.20;0.20;;;11.60;99.90;;;;;;5070927;28;20439;-77
2022/10/04 00:56:55;;;;;;;0.10;0.10;;;11.60;99.90;;;;;;5073448;28;20438;-77
2022/10/04 00:59:29;;;;;;;0.20;0.20;;;11.60;99.90;;;;;;5083174;28;20435;-77
2022/10/04 01:02:20;;;;;;;0.20;0.20;;;11.70;99.90;;;;;;5086817;28;20426;-77
2022/10/04 01:05:02;;;;;;;0.20;0.20;;;11.60;99.90;;;;;;5088398;28;20573;-77
2022/10/04 01:07:42;;;;;;;0.10;0.10;;;11.70;99.90;;;;;;5062442;28;20946;-77
2022/10/04 01:10:24;;;;;;;0.20;0.20;;;11.80;99.90;;;;;;5082570;28;20443;-77
2022/10/04 01:13:11;;;;;;;0.20;0.20;;;11.80;99.90;;;;;;5086659;28;20443;-77
2022/10/04 01:15:52;;;;;;;0.20;0.20;;;11.80;99.90;;;;;;5085754;28;20474;-77
2022/10/04 01:18:17;;;;;;;0.20;0.20;;;11.80;99.90;;;;;;5087942;28;20786;-77
2022/10/04 01:21:17;;;;;;;0.10;0.10;;;11.90;99.90;;;;;;5077314;28;20453;-77
2022/10/04 01:23:46;;;;;;;0.20;0.20;;;11.80;99.90;;;;;;5098140;28;20263;-77
2022/10/04 01:26:33;;;;;;;0.20;0.20;;;11.70;99.90;;;;;;5087680;28;20478;-78
2022/10/04 01:29:08;;;;;;;0.20;0.20;;;11.70;99.90;;;;;;5085058;28;20445;-77
2022/10/04 01:31:38;;;;;;;0.10;0.10;;;11.70;99.90;;;;;;5089239;28;20848;-77
2022/10/04 01:34:05;;;;;;;0.10;0.10;;;11.70;99.90;;;;;;5092982;28;20836;-77
2022/10/04 01:36:31;;;;;;;0.17;0.17;;;11.60;99.90;;;;;;5076051;28;20469;-78
2022/10/04 01:38:57;;;;;;;0.10;0.10;;;11.50;99.90;;;;;;5090686;28;20458;-77
2022/10/04 01:41:30;;;;;;;0.10;0.10;;;11.60;99.90;;;;;;5082884;28;21041;-77
2022/10/04 01:44:00;;;;;;;0.20;0.20;;;11.50;99.90;;;;;;5088164;28;20661;-76
2022/10/04 01:46:31;;;;;;;0.20;0.20;;;11.50;99.90;;;;;;5086161;28;20435;-77
2022/10/04 01:49:01;;;;;;;0.20;0.20;;;11.60;99.90;;;;;;5083353;28;20446;-77
2022/10/04 01:51:32;;;;;;;0.20;0.20;;;11.50;99.90;;;;;;5096943;28;20442;-77
2022/10/04 01:54:04;;;;;;;0.10;0.10;;;11.60;99.90;;;;;;5075537;28;20522;-77
2022/10/04 01:56:39;;;;;;;0.17;0.17;;;11.50;99.90;;;;;;5095277;28;20512;-76
2022/10/04 01:59:11;;;;;;;0.20;0.20;;;11.50;99.90;;;;;;5087504;28;20441;-77
2022/10/04 02:01:49;;;;;;;0.20;0.20;;;11.50;99.90;;;;;;5062277;28;20447;-77
2022/10/04 02:04:19;;;;;;;0.20;0.20;;;11.50;99.90;;;;;;5092624;28;20484;-77
2022/10/04 02:06:48;;;;;;;0.20;0.20;;;11.50;99.90;;;;;;5093059;28;22125;-77
2022/10/04 02:09:34;;;;;;;0.17;0.17;;;11.50;99.90;;;;;;5070113;28;20435;-77
2022/10/04 02:12:00;;;;;;;0.20;0.20;;;11.50;99.90;;;;;;5088166;28;20450;-77
2022/10/04 02:14:30;;;;;;;0.20;0.20;;;11.50;99.90;;;;;;5084244;28;20478;-77
2022/10/04 02:16:57;;;;;;;0.20;0.20;;;11.50;99.90;;;;;;5083773;28;21102;-77
2022/10/04 02:19:31;;;;;;;0.20;0.20;;;11.50;99.90;;;;;;5089388;28;20435;-78
2022/10/04 02:21:57;;;;;;;0.20;0.20;;;11.60;99.90;;;;;;5089374;28;20814;-78
2022/10/04 02:24:23;;;;;;;0.20;0.20;;;11.50;99.90;;;;;;5086736;28;20470;-77
2022/10/04 02:26:52;;;;;;;0.20;0.20;;;11.50;99.90;;;;;;5068580;28;20455;-77
2022/10/04 02:29:19;;;;;;;0.20;0.20;;;11.50;99.90;;;;;;5067414;28;20470;-77
2022/10/04 02:34:31;;;;;;;0.10;0.10;;;11.50;99.90;;;;;;5092967;28;21027;-76
2022/10/04 02:36:57;;;;;;;0.20;0.20;;;11.50;99.90;;;;;;5091066;28;20477;-77
2022/10/04 02:39:27;;;;;;;0.20;0.20;;;11.50;99.90;;;;;;5096546;28;20189;-77
2022/10/04 02:42:08;;;;;;;0.20;0.20;;;11.40;99.90;;;;;;5091525;28;20969;-77
2022/10/04 02:44:43;;;;;;;0.20;0.20;;;11.30;99.90;;;;;;5084346;28;20997;-78
2022/10/04 02:47:19;;;;;;;0.10;0.10;;;11.30;99.90;;;;;;5089255;28;20457;-77
2022/10/04 02:49:53;;;;;;;0.20;0.20;;;11.30;99.90;;;;;;5087315;28;20931;-77
2022/10/04 02:52:30;;;;;;;0.20;0.20;;;11.20;99.90;;;;;;5090026;28;20465;-76
2022/10/04 02:55:24;;;;;;;0.20;0.20;;;11.20;99.90;;;;;;5086665;28;20491;-77
2022/10/04 02:57:51;;;;;;;0.20;0.20;;;11.20;99.90;;;;;;5066719;28;20439;-77
2022/10/04 03:00:19;;;;;;;0.10;0.10;;;11.20;99.90;;;;;;5086379;28;20485;-77
2022/10/04 03:03:16;;;;;;;0.20;0.20;;;11.20;99.90;;;;;;5068331;28;20822;-77
2022/10/04 03:05:45;;;;;;;0.10;0.10;;;11.20;99.90;;;;;;5090660;28;20530;-77
2022/10/04 03:08:12;;;;;;;0.20;0.20;;;11.20;99.90;;;;;;5081349;28;20439;-77
2022/10/04 03:10:41;;;;;;;0.20;0.20;;;11.20;99.90;;;;;;5070123;28;20844;-78
2022/10/04 03:13:07;;;;;;;0.20;0.20;;;11.20;99.90;;;;;;5084467;28;20439;-78
2022/10/04 03:15:32;;;;;;;0.20;0.20;;;11.20;99.90;;;;;;5069719;28;20516;-78
2022/10/04 03:17:59;;;;;;;0.20;0.20;;;11.20;99.90;;;;;;5088678;28;20463;-77
2022/10/04 03:20:24;;;;;;;0.20;0.20;;;11.20;99.90;;;;;;5082123;28;20569;-78
2022/10/04 03:22:54;;;;;;;0.20;0.20;;;11.30;99.90;;;;;;5093792;28;20430;-77
2022/10/04 03:25:34;;;;;;;0.20;0.20;;;11.30;99.90;;;;;;5093304;28;20216;-78
2022/10/04 03:28:01;;;;;;;0.20;0.20;;;11.20;99.90;;;;;;5086013;28;20435;-77
2022/10/04 03:30:27;;;;;;;0.20;0.20;;;11.30;99.90;;;;;;5093235;28;20443;-78
2022/10/04 03:32:53;;;;;;;0.20;0.20;;;11.30;99.90;;;;;;5070994;28;20462;-77
2022/10/04 03:35:30;;;;;;;0.10;0.10;;;11.30;99.90;;;;;;5070857;28;20465;-77
2022/10/04 03:37:57;;;;;;;0.20;0.20;;;11.30;99.90;;;;;;5077686;28;20438;-77
2022/10/04 03:40:27;;;;;;;0.20;0.20;;;11.30;99.90;;;;;;5088180;28;20469;-77
2022/10/04 03:42:53;;;;;;;0.20;0.20;;;11.30;99.90;;;;;;5074458;28;20441;-78
2022/10/04 03:45:20;;;;;;;0.20;0.20;;;11.30;99.90;;;;;;5090021;28;20904;-77
2022/10/04 03:47:48;;;;;;;0.20;0.20;;;11.30;99.90;;;;;;5068373;28;20451;-78
2022/10/04 03:50:28;;;;;;;0.20;0.20;;;11.30;99.90;;;;;;5079942;28;20540;-77
2022/10/04 03:52:57;;;;;;;0.10;0.10;;;11.20;99.90;;;;;;5066974;28;20522;-77
2022/10/04 03:55:30;;;;;;;0.20;0.20;;;11.30;99.90;;;;;;5081682;28;20949;-77
2022/10/04 03:57:56;;;;;;;0.20;0.20;;;11.30;99.90;;;;;;5081673;28;20450;-77
2022/10/04 04:00:21;;;;;;;0.17;0.17;;;11.30;99.90;;;;;;5082448;28;21079;-77
2022/10/04 04:02:57;;;;;;;0.20;0.20;;;11.30;99.90;;;;;;5085704;28;20451;-78
2022/10/04 04:05:30;;;;;;;0.20;0.20;;;11.30;99.90;;;;;;5079074;28;20221;-78
2022/10/04 04:08:13;;;;;;;0.20;0.20;;;11.30;99.90;;;;;;5081310;28;20443;-77
2022/10/04 04:10:45;;;;;;;0.20;0.20;;;11.30;99.90;;;;;;5081851;28;20863;-77
2022/10/04 04:13:10;;;;;;;0.10;0.10;;;11.30;99.90;;;;;;5084094;28;20431;-77
2022/10/04 04:15:40;;;;;;;0.20;0.20;;;11.30;99.90;;;;;;5087492;28;20544;-77
2022/10/04 04:18:20;;;;;;;0.17;0.17;;;11.30;99.90;;;;;;5084098;28;20257;-77
2022/10/04 04:20:48;;;;;;;0.20;0.20;;;11.20;99.90;;;;;;5077062;28;20456;-77
2022/10/04 04:23:13;;;;;;;0.20;0.20;;;11.30;99.90;;;;;;5089008;28;20479;-77
2022/10/04 04:25:43;;;;;;;0.20;0.20;;;11.20;99.90;;;;;;5080262;28;20514;-77
2022/10/04 04:28:30;;;;;;;0.20;0.20;;;11.20;99.90;;;;;;5081783;28;20184;-77
2022/10/04 04:31:09;;;;;;;0.20;0.20;;;11.20;99.90;;;;;;5088610;28;20521;-77
2022/10/04 04:33:58;;;;;;;0.20;0.20;;;11.20;99.90;;;;;;5091100;28;20492;-77
2022/10/04 04:36:24;;;;;;;0.20;0.20;;;11.30;99.90;;;;;;5073911;28;20848;-77
2022/10/04 04:41:34;;;;;;;0.20;0.20;;;11.30;99.90;;;;;;5092154;28;20539;-78
2022/10/04 04:44:00;;;;;;;0.20;0.20;;;11.30;99.90;;;;;;5079904;28;21189;-78
2022/10/04 04:46:27;;;;;;;0.20;0.20;;;11.30;99.90;;;;;;5084273;28;20455;-77
2022/10/04 04:49:00;;;;;;;0.20;0.20;;;11.20;99.90;;;;;;5067794;28;20446;-77
2022/10/04 04:51:26;;;;;;;0.13;0.13;;;11.20;99.90;;;;;;5087709;28;20534;-77
2022/10/04 04:53:54;;;;;;;0.20;0.20;;;11.30;99.90;;;;;;5066608;28;20450;-78
2022/10/04 04:56:24;;;;;;;0.20;0.20;;;11.20;99.90;;;;;;5072957;28;20492;-77
2022/10/04 04:58:52;;;;;;;0.20;0.20;;;11.20;99.90;;;;;;5086836;28;20447;-77
2022/10/04 05:01:24;;;;;;;0.20;0.20;;;11.20;99.90;;;;;;5081037;28;20443;-77
2022/10/04 05:04:16;;;;;;;0.20;0.20;;;11.20;99.90;;;;;;5082100;28;20446;-78
2022/10/04 05:06:47;;;;;;;0.20;0.20;;;11.20;99.90;;;;;;5066921;28;20455;-78
2022/10/04 05:09:39;;;;;;;0.20;0.20;;;11.10;99.90;;;;;;5106775;28;20445;-78
2022/10/04 05:12:22;;;;;;;0.20;0.20;;;11.10;99.90;;;;;;5069622;28;20478;-81
2022/10/04 05:14:51;;;;;;;0.20;0.20;;;11.10;99.90;;;;;;5057433;28;20490;-81
2022/10/04 05:17:19;;;;;;;0.20;0.20;;;11.10;99.90;;;;;;5068824;28;20471;-80
2022/10/04 05:19:45;;;;;;;0.20;0.20;;;11.10;99.90;;;;;;5069456;28;20440;-81
2022/10/04 05:22:13;;;;;;;0.20;0.20;;;11.00;99.90;;;;;;5066591;28;20521;-80
2022/10/04 05:24:41;;;;;;;0.20;0.20;;;11.00;99.90;;;;;;5082133;28;20271;-80
2022/10/04 05:27:15;;;;;;;0.20;0.20;;;11.00;99.90;;;;;;5062659;28;20464;-81
2022/10/04 05:30:05;;;;;;;0.20;0.20;;;10.90;99.90;;;;;;5065363;28;20923;-81
2022/10/04 05:33:05;;;;;;;0.10;0.10;;;11.00;99.90;;;;;;5062790;28;21267;-81
2022/10/04 05:35:44;;;;;;;0.20;0.20;;;10.90;99.90;;;;;;5069006;28;20468;-81
2022/10/04 05:38:36;;;;;;;0.10;0.10;;;10.90;99.90;;;;;;5067288;28;20463;-81
2022/10/04 05:41:08;;;;;;;0.10;0.10;;;10.90;99.90;;;;;;5061146;28;20483;-82
2022/10/04 05:43:43;;;;;;;0.10;0.10;;;10.90;99.90;;;;;;5071179;28;22166;-80
2022/10/04 05:46:19;;;;;;;0.10;0.10;;;10.90;99.90;;;;;;5071345;28;20506;-82
2022/10/04 05:48:50;;;;;;;0.20;0.20;;;10.90;99.90;;;;;;5061726;28;20816;-80
2022/10/04 05:51:28;;;;;;;0.20;0.20;;;10.90;99.90;;;;;;5065636;28;20455;-81
2022/10/04 05:53:58;;;;;;;0.10;0.10;;;11.00;99.90;;;;;;5063415;28;20444;-80
2022/10/04 05:56:29;;;;;;;0.10;0.10;;;11.00;99.90;;;;;;5076636;28;20451;-81
2022/10/04 05:59:22;;;;;;;0.20;0.20;;;10.90;99.90;;;;;;5063679;28;20455;-81
2022/10/04 06:02:18;;;;;;;0.20;0.20;;;10.90;99.90;;;;;;5072037;28;20447;-80
2022/10/04 06:05:08;;;;;;;0.10;0.10;;;10.90;99.90;;;;;;5064130;28;21043;-81
2022/10/04 06:07:57;;;;;;;0.10;0.10;;;10.90;99.90;;;;;;5068645;28;20436;-81
2022/10/04 06:10:47;;;;;;;0.10;0.10;;;10.90;99.90;;;;;;5084579;28;20455;-80
2022/10/04 06:13:51;;;;;;;0.10;0.10;;;10.90;99.90;;;;;;5071918;28;20436;-80
2022/10/04 06:16:22;;;;;;;0.10;0.10;;;10.90;99.90;;;;;;5089212;28;20994;-80
2022/10/04 06:19:09;;;;;;;0.10;0.10;;;10.90;99.90;;;;;;5094263;28;21141;-81
2022/10/04 06:22:12;;;;;;;0.20;0.20;;;11.00;99.90;;;;;;5100488;28;20445;-80
2022/10/04 06:24:41;;;;;;;0.20;0.20;;;11.00;99.90;;;;;;5086414;28;20466;-80
2022/10/04 06:27:29;;;;;;;0.20;0.20;;;11.00;99.90;;;;;;5094561;28;20448;-81
2022/10/04 06:30:11;;;;;;;0.20;0.20;;;11.10;99.90;;;;;;5084562;28;20435;-84
2022/10/04 06:33:14;;;;;;;0.20;0.20;;;11.20;99.90;;;;;;5085779;28;20538;-81
2022/10/04 06:36:08;;;;;;;0.20;0.20;;;11.20;99.90;;;;;;5088615;28;20954;-81
2022/10/04 06:39:03;;;;;;;0.20;0.20;;;11.20;99.90;;;;;;5098107;28;20446;-81
2022/10/04 06:41:42;;;;;;;0.20;0.20;;;11.20;99.90;;;;;;5087380;28;20431;-80
2022/10/04 06:44:20;;;;;;;0.20;0.20;;;11.20;99.90;;;;;;5081250;28;20530;-81
2022/10/04 06:47:10;;;;;;;0.17;0.17;;;11.30;99.90;;;;;;5089423;28;21122;-81
2022/10/04 06:50:05;;;;;;;0.20;0.20;;;11.20;99.90;;;;;;5085035;28;20530;-82
2022/10/04 06:52:57;;;;;;;0.20;0.20;;;11.30;99.90;;;;;;5084955;28;20427;-81
2022/10/04 06:55:48;;;;;;;0.20;0.20;;;11.30;99.90;;;;;;5067805;28;20482;-81
2022/10/04 06:58:38;;;;;;;0.17;0.17;;;11.30;99.90;;;;;;5068220;28;20465;-80
2022/10/04 07:01:30;;;;;;;0.10;0.10;;;11.30;99.90;;;;;;5067109;28;20458;-81
2022/10/04 07:04:00;;;;;;;0.20;0.20;;;11.30;99.90;;;;;;5087477;28;20484;-80
2022/10/04 07:06:37;;;;;;;0.20;0.20;;;11.30;99.90;;;;;;5089123;28;20994;-79
2022/10/04 07:09:06;;;;;;;0.20;0.20;;;11.30;99.90;;;;;;5089364;28;20447;-80
2022/10/04 07:11:44;;;;;;;0.20;0.20;;;11.40;99.90;;;;;;5083747;28;20427;-80
2022/10/04 07:14:36;;;;;;;0.20;0.20;;;11.40;99.90;;;;;;5087265;28;20483;-80
2022/10/04 07:17:09;;;;;;;0.20;0.20;;;11.40;99.90;;;;;;5068102;28;20443;-80
2022/10/04 07:19:44;;;;;;;0.20;0.20;;;11.50;99.90;;;;;;5088235;28;20437;-79
2022/10/04 07:22:24;;;;;;;0.20;0.20;;;11.50;99.90;;;;;;5085645;28;20515;-81
2022/10/04 07:24:50;;;;;;;0.10;0.10;;;11.50;99.90;;;;;;5083172;28;20488;-81
2022/10/04 07:27:42;;;;;;;0.10;0.10;;;11.60;99.90;;;;;;5065869;28;20975;-80
2022/10/04 07:30:18;;;;;;;0.20;0.20;;;11.60;99.90;;;;;;5079645;28;20204;-80
2022/10/04 07:32:46;;;;;;;0.20;0.20;;;11.60;99.90;;;;;;5063507;28;20446;-80
2022/10/04 07:35:20;;;;;;;0.20;0.20;;;11.70;99.90;;;;;;5085669;28;20439;-81
2022/10/04 07:38:14;;;;;;;0.17;0.17;;;11.70;99.90;;;;;;5088493;28;20474;-79
2022/10/04 07:41:09;;;;;;;0.20;0.20;;;11.80;99.90;;;;;;5068939;28;20518;-80
2022/10/04 07:43:45;;;;;;;0.20;0.20;;;11.80;99.90;;;;;;5092030;28;20983;-82
2022/10/04 07:46:38;;;;;;;0.20;0.20;;;11.90;99.90;;;;;;5087657;28;20489;-80
2022/10/04 07:49:03;;;;;;;0.20;0.20;;;11.90;99.90;;;;;;5080706;28;20475;-80
2022/10/04 07:51:49;;;;;;;0.20;0.20;;;12.00;99.90;;;;;;5085473;28;20470;-80
2022/10/04 07:54:24;;;;;;;0.10;0.10;;;12.00;99.90;;;;;;5074177;28;20201;-79
2022/10/04 07:57:00;;;;;;;0.20;0.20;;;12.00;99.90;;;;;;5085858;28;21254;-80
2022/10/04 07:59:38;;;;;;;0.10;0.10;;;12.00;99.90;;;;;;5077512;28;20525;-80
2022/10/04 08:02:25;;;;;;;0.10;0.10;;;12.10;99.90;;;;;;5082626;28;20547;-80
2022/10/04 08:05:16;;;;;;;0.10;0.10;;;12.10;99.90;;;;;;5080389;28;20519;-80
2022/10/04 08:07:58;;;;;;;0.10;0.10;;;12.10;99.90;;;;;;5083240;28;20450;-81
2022/10/04 08:10:55;;;;;;;0.10;0.10;;;12.10;99.90;;;;;;5060714;28;20443;-81
2022/10/04 08:13:45;;;;;;;0.13;0.13;;;12.10;99.90;;;;;;5062030;28;20483;-80
2022/10/04 08:16:34;;;;;;;0.17;0.17;;;12.00;99.90;;;;;;5083073;28;20478;-80
2022/10/04 08:19:05;;;;;;;0.20;0.20;;;12.10;99.90;;;;;;5064202;28;21021;-80
2022/10/04 08:21:53;;;;;;;0.10;0.10;;;12.10;99.90;;;;;;5092586;28;20447;-80
2022/10/04 08:24:31;;;;;;;0.10;0.10;;;12.10;99.90;;;;;;5051757;28;20607;-82
2022/10/04 08:27:25;;;;;;;0.10;0.10;;;12.20;99.90;;;;;;5067002;28;20835;-79
2022/10/04 08:30:01;;;;;;;0.10;0.10;;;12.20;99.90;;;;;;5092637;28;20435;-79
2022/10/04 08:32:26;;;;;;;0.10;0.10;;;12.20;99.90;;;;;;5092316;28;20439;-78
2022/10/04 08:35:21;;;;;;;0.10;0.10;;;12.30;99.90;;;;;;5064124;28;20447;-79
2022/10/04 08:38:08;;;;;;;0.10;0.10;;;12.30;99.90;;;;;;5086068;28;20277;-79
2022/10/04 08:41:07;;;;;;;0.10;0.10;;;12.30;99.90;;;;;;5086759;28;20451;-79
2022/10/04 08:44:07;;;;;;;0.20;0.20;;;12.40;99.90;;;;;;5075533;28;20516;-80
2022/10/04 08:47:10;;;;;;;0.10;0.10;;;12.50;99.90;;;;;;5070552;28;20996;-80
2022/10/04 08:49:45;;;;;;;0.20;0.20;;;12.50;99.90;;;;;;5088955;28;20494;-79
2022/10/04 08:52:41;;;;;;;0.20;0.20;;;12.60;99.90;;;;;;5093031;28;20453;-80
2022/10/04 08:55:49;;;;;;;0.10;0.10;;;12.60;99.90;;;;;;5090595;28;21096;-79
2022/10/04 08:58:48;;;;;;;0.10;0.10;;;12.60;99.90;;;;;;5086688;28;20461;-79
2022/10/04 09:01:17;;;;;;;0.10;0.10;;;12.70;99.90;;;;;;5087387;28;20958;-80
2022/10/04 09:04:12;;;;;;;0.10;0.10;;;12.80;99.90;;;;;;5069441;28;20943;-79
2022/10/04 09:06:53;;;;;;;0.10;0.10;;;12.90;99.90;;;;;;5084862;28;20447;-78
2022/10/04 09:09:52;;;;;;;0.10;0.10;;;12.90;99.90;;;;;;5093002;28;20476;-79
2022/10/04 09:13:15;;;;;;;0.10;0.10;;;13.00;99.90;;;;;;5085173;28;20450;-79
2022/10/04 09:15:51;;;;;;;0.10;0.10;;;13.10;99.90;;;;;;5000329;28;20538;-79
2022/10/04 09:18:35;;;;;;;0.20;0.20;;;13.10;99.90;;;;;;5004155;28;20447;-78
2022/10/04 09:21:19;;;;;;;0.10;0.10;;;13.10;99.90;;;;;;5029663;28;20446;-80
2022/10/04 09:24:23;;;;;;;0.10;0.10;;;13.10;99.90;;;;;;5043338;28;20441;-79
2022/10/04 09:26:58;;;;;;;0.10;0.10;;;13.10;99.90;;;;;;5039177;28;20456;-79
2022/10/04 09:29:49;;;;;;;0.10;0.10;;;13.20;99.90;;;;;;5054660;28;20480;-78
2022/10/04 09:32:22;;;;;;;0.20;0.20;;;13.20;99.90;;;;;;5047845;28;20906;-79
2022/10/04 09:35:12;;;;;;;0.10;0.10;;;13.30;99.90;;;;;;5041370;28;20516;-80
2022/10/04 09:38:02;;;;;;;0.10;0.10;;;13.50;99.90;;;;;;5042375;28;20448;-79
2022/10/04 09:41:05;;;;;;;0.10;0.10;;;13.60;99.90;;;;;;5053625;28;20806;-79
2022/10/04 09:44:01;;;;;;;0.10;0.10;;;13.80;99.90;;;;;;5048645;28;20440;-79
2022/10/04 09:47:09;;;;;;;0.10;0.10;;;14.10;99.90;;;;;;5050665;28;20489;-80
2022/10/04 09:50:19;;;;;;;0.10;0.10;;;14.30;99.90;;;;;;5041202;28;20432;-79
2022/10/04 09:53:09;;;;;;;0.10;0.10;;;14.60;99.90;;;;;;5046703;28;20447;-79
2022/10/04 09:55:52;;;;;;;0.10;0.10;;;14.70;99.90;;;;;;5036087;28;20441;-79
2022/10/04 09:58:50;;;;;;;0.10;0.10;;;15.00;99.90;;;;;;5049066;28;20454;-81
2022/10/04 10:01:39;;;;;;;0.10;0.10;;;15.50;99.90;;;;;;5048140;28;20456;-80
2022/10/04 10:04:33;;;;;;;0.10;0.10;;;15.90;99.90;;;;;;5050110;28;20448;-82
2022/10/04 10:07:20;;;;;;;0.10;0.10;;;16.50;99.90;;;;;;5047312;28;20460;-81
2022/10/04 10:13:41;;;;;;;0.10;0.10;;;17.50;99.90;;;;;;5050174;28;20504;-80
2022/10/04 10:16:41;;;;;;;0.10;0.10;;;17.40;99.90;;;;;;5085202;28;20582;-81
2022/10/04 10:19:13;;;;;;;0.10;0.10;;;17.90;99.90;;;;;;5104486;28;21009;-82
2022/10/04 10:21:54;;;;;;;0.10;0.10;;;18.30;99.90;;;;;;5073982;28;20438;-81
2022/10/04 10:24:58;;;;;;;0.10;0.10;;;18.50;99.90;;;;;;5085684;28;20930;-82
2022/10/04 10:28:01;;;;;;;0.10;0.10;;;18.50;99.90;;;;;;5086928;28;20552;-82
2022/10/04 10:31:04;;;;;;;0.00;0.00;;;18.50;99.90;;;;;;5106268;28;20506;-81
2022/10/04 10:33:44;;;;;;;0.10;0.10;;;18.50;99.90;;;;;;5084324;28;20487;-81
2022/10/04 10:36:40;;;;;;;0.10;0.10;;;18.80;99.90;;;;;;5085266;28;20442;-81
2022/10/04 10:39:43;;;;;;;0.00;0.00;;;19.40;99.90;;;;;;5092176;28;20811;-82
2022/10/04 10:42:49;;;;;;;0.00;0.00;;;19.40;99.90;;;;;;5089687;28;20467;-81
2022/10/04 10:45:40;;;;;;;0.07;0.07;;;19.80;99.90;;;;;;5079656;28;20510;-82
2022/10/04 10:48:25;;;;;;;0.00;0.00;;;19.50;99.90;;;;;;5089709;28;20527;-80
2022/10/04 10:51:09;;;;;;;0.00;0.00;;;19.30;99.90;;;;;;5096616;28;20514;-80
2022/10/04 10:53:47;;;;;;;0.00;0.00;;;20.00;99.90;;;;;;5083884;28;20458;-82
2022/10/04 10:56:43;;;;;;;0.00;0.00;;;20.80;99.90;;;;;;5087679;28;21010;-83
2022/10/04 10:59:48;;;;;;;0.00;0.00;;;21.00;99.90;;;;;;5087760;28;20442;-84
2022/10/04 11:02:35;;;;;;;0.00;0.00;;;21.20;99.90;;;;;;5086577;28;20445;-81
2022/10/04 11:05:29;;;;;;;0.00;0.00;;;21.10;99.90;;;;;;5102107;28;20462;-82
2022/10/04 11:08:14;;;;;;;0.00;0.00;;;20.90;99.90;;;;;;5084138;28;20533;-83
2022/10/04 11:10:53;;;;;;;0.00;0.00;;;21.10;99.90;;;;;;5083280;28;20439;-82
2022/10/04 11:13:56;;;;;;;0.00;0.00;;;21.80;99.90;;;;;;5088334;28;20443;-83
2022/10/04 11:16:33;;;;;;;0.00;0.00;;;21.30;99.90;;;;;;5091173;28;20442;-83
2022/10/04 11:19:22;;;;;;;0.00;0.00;;;21.40;99.90;;;;;;5088285;28;20486;-82
2022/10/04 11:22:10;;;;;;;0.00;0.00;;;21.90;99.90;;;;;;5088705;28;20411;-83
2022/10/04 11:24:52;;;;;;;0.00;0.00;;;22.20;99.90;;;;;;5085901;28;20565;-83
2022/10/04 11:27:23;;;;;;;0.00;0.00;;;21.60;99.90;;;;;;5100463;28;20459;-84
2022/10/04 11:30:01;;;;;;;0.00;0.00;;;21.50;99.90;;;;;;5089921;28;20501;-84
2022/10/04 11:33:08;;;;;;;0.00;0.00;;;21.90;99.90;;;;;;5086640;28;20952;-83
2022/10/04 11:35:46;;;;;;;0.00;0.00;;;20.40;99.90;;;;;;5070387;28;20445;-83
2022/10/04 11:38:46;;;;;;;0.00;0.00;;;19.70;99.90;;;;;;5070386;28;20449;-82
2022/10/04 11:41:43;;;;;;;0.00;0.00;;;19.90;99.90;;;;;;5089989;28;20431;-82
2022/10/04 11:44:20;;;;;;;0.00;0.00;;;18.90;99.90;;;;;;5085855;28;20478;-83
2022/10/04 11:47:06;;;;;;;0.00;0.00;;;18.30;99.90;;;;;;5072489;28;20455;-83
2022/10/04 11:50:01;;;;;;;0.07;0.07;;;18.00;99.90;;;;;;5070516;28;20443;-85
2022/10/04 11:53:05;;;;;;;0.00;0.00;;;18.00;99.90;;;;;;5070407;28;20458;-83
2022/10/04 11:56:09;;;;;;;0.07;0.07;;;17.90;99.90;;;;;;5086650;28;20546;-82
2022/10/04 11:58:58;;;;;;;0.10;0.10;;;17.80;99.90;;;;;;5089918;28;20447;-83
2022/10/04 12:01:42;;;;;;;0.00;0.00;;;17.90;99.90;;;;;;5087474;28;20439;-82
2022/10/04 12:04:44;;;;;;;0.07;0.07;;;18.00;99.90;;;;;;5085615;28;20480;-81
2022/10/04 12:07:36;;;;;;;0.00;0.00;;;19.10;99.90;;;;;;5085270;28;20506;-81
2022/10/04 12:10:28;;;;;;;0.00;0.00;;;21.00;99.90;;;;;;5082951;28;20973;-81
2022/10/04 12:13:29;;;;;;;0.00;0.00;;;21.80;99.90;;;;;;5084101;28;20930;-82
2022/10/04 12:16:00;;;;;;;0.00;0.00;;;22.60;99.90;;;;;;4981319;28;20538;-81
2022/10/04 12:18:51;;;;;;;0.00;0.00;;;21.70;99.90;;;;;;5088012;28;20427;-80
2022/10/04 12:21:33;;;;;;;0.00;0.00;;;20.80;99.90;;;;;;5068132;28;20540;-80
2022/10/04 12:24:27;;;;;;;0.00;0.00;;;20.40;99.90;;;;;;5068678;28;20439;-81
2022/10/04 12:27:01;;;;;;;0.00;0.00;;;19.60;99.90;;;;;;5087234;28;20451;-79
2022/10/04 12:29:27;;;;;;;0.00;0.00;;;19.10;99.90;;;;;;5087981;28;21081;-80
2022/10/04 12:32:45;;;;;;;0.00;0.00;;;18.70;99.90;;;;;;5068501;28;20443;-82
2022/10/04 12:35:21;;;;;;;0.10;0.10;;;20.10;99.90;;;;;;5048298;28;20461;-81
2022/10/04 12:38:17;;;;;;;0.07;0.07;;;20.80;99.90;;;;;;5084600;28;20451;-81
2022/10/04 12:40:47;;;;;;;0.00;0.00;;;22.00;99.90;;;;;;5086317;28;20442;-82
2022/10/04 12:43:37;;;;;;;0.00;0.00;;;22.10;99.90;;;;;;5087886;28;20969;-82
2022/10/04 12:46:24;;;;;;;0.00;0.00;;;22.70;99.90;;;;;;5078094;28;20526;-82
2022/10/04 12:49:10;;;;;;;0.00;0.00;;;22.30;99.90;;;;;;5089136;28;20934;-82
2022/10/04 12:51:52;;;;;;;0.00;0.00;;;21.50;99.90;;;;;;5081617;28;20461;-82
2022/10/04 12:54:37;;;;;;;0.00;0.00;;;20.10;99.90;;;;;;5066558;28;20470;-82
2022/10/04 12:57:25;;;;;;;0.00;0.00;;;19.80;99.90;;;;;;5072534;28;20599;-82
2022/10/04 13:00:13;;;;;;;0.00;0.00;;;19.10;99.90;;;;;;5085222;28;20446;-82
2022/10/04 13:02:46;;;;;;;0.00;0.00;;;19.60;99.90;;;;;;5062054;28;20440;-81
2022/10/04 13:05:26;;;;;;;0.00;0.00;;;19.60;99.90;;;;;;5075054;28;20982;-80
2022/10/04 13:08:02;;;;;;;0.00;0.00;;;19.20;99.90;;;;;;5085420;28;20471;-82
2022/10/04 13:10:55;;;;;;;0.00;0.00;;;19.30;99.90;;;;;;5083228;28;20430;-82
2022/10/04 13:13:49;;;;;;;0.00;0.00;;;21.00;99.90;;;;;;5088701;28;20458;-82
2022/10/04 13:41:47;;;;;;;0.00;0.00;;;23.00;99.90;;;;;;5127489;27;20588;-82
2022/10/04 13:44:49;;;;;;;0.00;0.00;;;22.90;99.90;;;;;;5102664;28;20532;-81
2022/10/04 13:47:33;;;;;;;0.00;0.00;;;22.50;99.90;;;;;;5101759;28;20446;-82
2022/10/04 13:50:13;;;;;;;0.00;0.00;;;23.30;99.90;;;;;;5102565;28;20446;-82
2022/10/04 13:59:23;;;;;;;0.00;0.00;;;22.10;99.90;;;;;;5096337;28;20472;-83
2022/10/04 14:02:26;;;;;;;0.00;0.00;;;22.30;99.90;;;;;;5111100;28;20517;-82
2022/10/04 14:05:10;;;;;;;0.00;0.00;;;23.50;99.90;;;;;;5089501;28;20489;-82
2022/10/04 14:08:04;;;;;;;0.00;0.00;;;24.10;99.90;;;;;;5100035;28;20533;-82
2022/10/04 14:10:54;;;;;;;0.00;0.00;;;24.30;99.90;;;;;;5087444;28;20883;-83
2022/10/04 14:13:41;;;;;;;0.00;0.00;;;22.90;99.90;;;;;;5107609;28;20414;-83
2022/10/04 14:16:40;;;;;;;0.00;0.00;;;22.40;99.90;;;;;;5093681;28;20431;-82
2022/10/04 14:19:23;;;;;;;0.00;0.00;;;21.30;99.90;;;;;;5099348;28;20469;-81
2022/10/04 14:22:08;;;;;;;0.00;0.00;;;20.10;99.90;;;;;;5104581;28;20553;-82
2022/10/04 14:24:39;;;;;;;0.00;0.00;;;19.90;99.90;;;;;;5097824;28;20533;-82
2022/10/04 14:27:15;;;;;;;0.00;0.00;;;19.70;99.90;;;;;;5102663;28;20470;-82
2022/10/04 14:30:16;;;;;;;0.00;0.00;;;19.40;99.90;;;;;;5096923;28;20431;-82
2022/10/04 14:33:11;;;;;;;0.00;0.00;;;19.20;99.90;;;;;;5086967;28;20525;-82
2022/10/04 14:36:07;;;;;;;0.00;0.00;;;19.00;99.90;;;;;;5099555;28;20869;-81
2022/10/04 14:38:46;;;;;;;0.00;0.00;;;18.50;99.90;;;;;;5100225;28;20958;-81
2022/10/04 14:41:24;;;;;;;0.00;0.00;;;18.40;99.90;;;;;;5104124;28;20458;-82
2022/10/04 14:44:26;;;;;;;0.00;0.00;;;18.30;99.90;;;;;;5100301;28;20462;-82